Time;durP1;ratioP1;P1;durP2;ratioP2;P2;SDS_P1;SDS_P2;PMS_P1;PMS_P2;Temp;Humidity;BMP_temperature;BMP_pressure;BME280_temperature;BME280_humidity;BME280_pressure;Samples;Min_cycle;Max_cycle;Signal;HPM_P1;HPM_P2
2023/09/06 00:00:45;;;;;;;3.80;2.40;;;;;;;12.19;100.00;100908.23;105029;1254;73200;-51
2023/09/06 00:03:14;;;;;;;2.90;2.40;;;;;;;12.20;100.00;100908.59;105344;1254;60600;-49
2023/09/06 00:05:41;;;;;;;4.90;2.70;;;;;;;12.21;100.00;100908.18;105159;1253;59746;-48
2023/09/06 00:08:14;;;;;;;2.30;1.90;;;;;;;12.20;100.00;100910.02;105042;1259;71267;-50
2023/09/06 00:10:42;;;;;;;3.20;2.10;;;;;;;12.17;100.00;100910.67;104859;1254;68897;-48
2023/09/06 00:13:10;;;;;;;3.50;2.90;;;;;;;12.14;100.00;100908.23;105171;1259;71505;-48
2023/09/06 00:15:38;;;;;;;3.50;2.30;;;;;;;12.12;100.00;100911.20;104762;1255;59660;-48
2023/09/06 00:18:06;;;;;;;2.30;1.90;;;;;;;12.10;100.00;100908.21;105037;1254;60049;-52
2023/09/06 00:20:34;;;;;;;3.60;2.80;;;;;;;12.07;100.00;100907.44;109038;1255;71892;-50
2023/09/06 00:23:09;;;;;;;2.20;1.50;;;;;;;12.06;100.00;100908.02;109092;1254;67536;-50
2023/09/06 00:25:37;;;;;;;2.60;1.40;;;;;;;12.05;100.00;100905.88;108978;1256;72442;-49
2023/09/06 00:28:05;;;;;;;1.70;1.40;;;;;;;12.04;100.00;100904.29;108991;1254;61800;-51
2023/09/06 00:30:33;;;;;;;2.70;2.00;;;;;;;12.06;100.00;100902.26;108985;1254;58708;-49
2023/09/06 00:33:03;;;;;;;1.80;1.70;;;;;;;12.09;100.00;100904.45;109080;1256;74328;-49
2023/09/06 00:35:30;;;;;;;2.90;1.90;;;;;;;12.13;100.00;100906.31;109032;1254;65066;-50
2023/09/06 00:38:00;;;;;;;1.90;1.50;;;;;;;12.15;100.00;100903.20;108826;1255;71492;-48
2023/09/06 00:40:29;;;;;;;2.10;1.70;;;;;;;12.15;100.00;100906.80;108981;1255;58827;-49
2023/09/06 00:43:00;;;;;;;2.10;1.70;;;;;;;12.10;100.00;100900.27;109087;1254;58804;-49
2023/09/06 00:45:44;;;;;;;2.10;1.80;;;;;;;12.08;100.00;100902.16;108904;1254;73783;-53
2023/09/06 00:48:12;;;;;;;2.20;1.40;;;;;;;12.05;100.00;100906.61;109087;1254;65769;-49
2023/09/06 00:50:41;;;;;;;2.10;1.60;;;;;;;12.00;100.00;100911.11;108833;1254;72661;-49
2023/09/06 00:53:08;;;;;;;3.70;2.10;;;;;;;11.96;100.00;100913.77;108787;1254;58748;-50
2023/09/06 00:55:37;;;;;;;2.10;1.70;;;;;;;11.94;100.00;100913.11;109095;1254;60122;-48
2023/09/06 00:58:08;;;;;;;2.90;1.40;;;;;;;11.94;100.00;100913.66;108786;1256;73080;-50
2023/09/06 01:00:35;;;;;;;3.00;1.70;;;;;;;11.93;100.00;100913.13;105934;1262;65503;-49
2023/09/06 01:03:04;;;;;;;2.50;1.50;;;;;;;11.94;100.00;100908.98;104748;1259;72671;-49
2023/09/06 01:05:36;;;;;;;3.80;1.90;;;;;;;11.95;100.00;100907.50;105751;1256;60553;-50
2023/09/06 01:08:04;;;;;;;5.60;2.40;;;;;;;11.98;100.00;100905.81;104998;1260;61193;-50
2023/09/06 01:10:34;;;;;;;2.30;2.10;;;;;;;11.99;100.00;100904.64;104922;1256;73916;-49
2023/09/06 01:13:02;;;;;;;3.20;2.70;;;;;;;11.96;100.00;100903.52;106526;1254;66773;-49
2023/09/06 01:15:31;;;;;;;3.90;2.10;;;;;;;11.92;100.00;100900.75;105008;1259;73638;-49
2023/09/06 01:17:59;;;;;;;3.00;2.10;;;;;;;11.88;100.00;100901.82;106136;1257;61596;-48
2023/09/06 01:20:53;;;;;;;3.10;1.90;;;;;;;11.84;100.00;100900.52;105009;1254;60520;-53
2023/09/06 01:23:26;;;;;;;2.00;1.80;;;;;;;11.78;100.00;100900.55;104838;1255;73019;-52
2023/09/06 01:25:53;;;;;;;4.90;1.50;;;;;;;11.74;100.00;100900.67;104878;1254;67168;-52
2023/09/06 01:28:25;;;;;;;3.80;1.90;;;;;;;11.70;100.00;100904.04;104510;1263;70452;-54
2023/09/06 01:30:54;;;;;;;2.00;1.40;;;;;;;11.59;100.00;100906.23;104868;1254;60721;-53
2023/09/06 01:33:22;;;;;;;2.00;1.70;;;;;;;11.50;100.00;100905.46;105401;1260;60887;-52
2023/09/06 01:35:50;;;;;;;1.60;1.20;;;;;;;11.48;100.00;100905.70;104858;1259;73833;-51
2023/09/06 01:38:17;;;;;;;2.10;1.60;;;;;;;11.50;100.00;100902.58;104928;1259;65675;-53
2023/09/06 01:40:45;;;;;;;3.20;1.70;;;;;;;11.45;100.00;100903.27;104885;1257;71680;-52
2023/09/06 01:43:12;;;;;;;2.50;1.80;;;;;;;11.41;100.00;100902.14;104753;1256;60635;-54
2023/09/06 01:45:45;;;;;;;2.50;1.50;;;;;;;11.41;100.00;100908.60;105384;1255;60547;-53
2023/09/06 01:48:13;;;;;;;3.60;1.80;;;;;;;11.43;100.00;100905.50;105034;1257;74282;-54
2023/09/06 01:50:41;;;;;;;2.80;1.80;;;;;;;11.44;100.00;100907.45;104835;1256;66859;-54
2023/09/06 01:53:08;;;;;;;3.60;2.40;;;;;;;11.42;100.00;100907.51;104840;1256;71466;-53
2023/09/06 01:55:36;;;;;;;2.80;1.80;;;;;;;11.38;100.00;100904.40;104721;1259;60556;-52
2023/09/06 01:58:04;;;;;;;2.90;1.40;;;;;;;11.37;100.00;100907.14;105252;1254;60453;-53
2023/09/06 02:00:34;;;;;;;2.80;1.20;;;;;;;11.33;100.00;100904.92;104700;1254;73791;-51
2023/09/06 02:03:02;;;;;;;2.00;1.20;;;;;;;11.31;100.00;100900.48;106556;1255;67254;-50
2023/09/06 02:05:32;;;;;;;2.00;1.30;;;;;;;11.34;100.00;100901.30;105300;1256;71112;-51
2023/09/06 02:08:00;;;;;;;1.90;1.50;;;;;;;11.37;100.00;100902.48;104895;1256;60501;-50
2023/09/06 02:10:27;;;;;;;2.40;1.70;;;;;;;11.36;100.00;100907.34;105035;1257;60540;-50
2023/09/06 02:12:54;;;;;;;3.10;1.80;;;;;;;11.36;100.00;100908.06;104998;1256;74265;-50
2023/09/06 02:15:23;;;;;;;3.00;1.40;;;;;;;11.34;100.00;100909.02;104845;1256;67550;-50
2023/09/06 02:17:50;;;;;;;2.60;1.90;;;;;;;11.34;100.00;100903.98;105503;1256;71525;-50
2023/09/06 02:20:20;;;;;;;2.00;1.80;;;;;;;11.34;100.00;100908.29;105666;1257;60430;-50
2023/09/06 02:22:56;;;;;;;3.50;1.30;;;;;;;11.35;100.00;100903.61;104874;1254;60531;-51
2023/09/06 02:25:29;;;;;;;1.40;1.30;;;;;;;11.35;100.00;100903.41;104864;1254;73090;-48
2023/09/06 02:27:57;;;;;;;1.90;1.30;;;;;;;11.35;100.00;100903.42;104812;1259;65667;-50
2023/09/06 02:30:24;;;;;;;3.10;1.30;;;;;;;11.34;100.00;100903.44;104863;1259;72441;-50
2023/09/06 02:32:54;;;;;;;1.80;1.40;;;;;;;11.35;100.00;100902.16;105017;1259;60706;-50
2023/09/06 02:35:21;;;;;;;4.10;1.30;;;;;;;11.37;100.00;100901.02;105756;1256;60563;-50
2023/09/06 02:37:49;;;;;;;2.80;1.10;;;;;;;11.40;100.00;100904.70;104838;1254;72546;-50
2023/09/06 02:40:20;;;;;;;1.80;1.50;;;;;;;11.42;100.00;100905.54;104992;1259;66906;-50
2023/09/06 02:42:49;;;;;;;3.90;1.90;;;;;;;11.43;100.00;100901.73;104643;1258;72408;-48
2023/09/06 02:45:17;;;;;;;2.00;1.50;;;;;;;11.44;100.00;100902.23;104896;1259;60505;-50
2023/09/06 02:47:48;;;;;;;1.80;1.70;;;;;;;11.46;100.00;100902.19;104484;1256;60303;-49
2023/09/06 02:50:18;;;;;;;2.80;1.80;;;;;;;11.46;100.00;100902.35;104660;1254;75047;-51
2023/09/06 02:52:45;;;;;;;2.70;2.20;;;;;;;11.47;100.00;100904.50;105834;1254;66801;-51
2023/09/06 02:55:13;;;;;;;2.50;1.40;;;;;;;11.45;100.00;100901.14;104506;1254;72714;-51
2023/09/06 02:57:41;;;;;;;1.80;1.60;;;;;;;11.41;100.00;100899.29;104720;1257;62129;-48
2023/09/06 03:00:25;;;;;;;3.00;1.60;;;;;;;11.37;100.00;100897.79;104620;1256;60540;-49
2023/09/06 03:03:00;;;;;;;2.00;1.40;;;;;;;11.35;100.00;100898.22;104859;1255;74428;-50
2023/09/06 03:05:28;;;;;;;1.90;1.30;;;;;;;11.35;100.00;100899.48;108462;1254;66329;-50
2023/09/06 03:07:56;;;;;;;2.00;1.50;;;;;;;11.38;100.00;100901.20;107895;1256;71632;-50
2023/09/06 03:10:24;;;;;;;1.50;1.40;;;;;;;11.39;100.00;100903.30;108745;1254;59972;-50
2023/09/06 03:12:55;;;;;;;1.70;1.20;;;;;;;11.42;100.00;100897.46;108965;1254;59002;-50
2023/09/06 03:15:28;;;;;;;2.20;1.60;;;;;;;11.43;100.00;100894.00;108832;1254;74933;-51
2023/09/06 03:18:02;;;;;;;2.90;1.60;;;;;;;11.44;100.00;100897.04;108833;1254;67280;-52
2023/09/06 03:20:44;;;;;;;3.30;1.70;;;;;;;11.43;100.00;100898.30;108746;1254;72221;-51
2023/09/06 03:23:19;;;;;;;5.30;2.10;;;;;;;11.44;100.00;100896.85;108799;1254;60044;-51
2023/09/06 03:25:59;;;;;;;1.80;1.60;;;;;;;11.43;100.00;100896.89;108701;1254;60052;-50
2023/09/06 03:28:33;;;;;;;2.50;1.90;;;;;;;11.41;100.00;100896.94;108790;1254;72534;-50
2023/09/06 03:31:01;;;;;;;3.50;1.40;;;;;;;11.40;100.00;100896.27;108725;1254;66876;-52
2023/09/06 03:33:29;;;;;;;2.30;1.90;;;;;;;11.37;100.00;100898.14;108820;1256;72662;-50
2023/09/06 03:35:57;;;;;;;1.40;1.10;;;;;;;11.39;100.00;100899.91;108741;1254;62167;-51
2023/09/06 03:38:28;;;;;;;1.80;1.30;;;;;;;11.40;100.00;100899.30;108865;1256;60822;-50
2023/09/06 03:41:01;;;;;;;1.40;1.30;;;;;;;11.40;100.00;100900.40;108754;1255;73853;-51
2023/09/06 03:43:32;;;;;;;2.00;1.80;;;;;;;11.40;100.00;100898.03;108910;1257;66784;-50
2023/09/06 03:46:04;;;;;;;4.50;1.80;;;;;;;11.42;100.00;100901.40;108971;1256;71434;-52
2023/09/06 03:48:34;;;;;;;3.90;1.70;;;;;;;11.42;100.00;100903.73;104908;1254;60609;-49
2023/09/06 03:51:03;;;;;;;3.20;1.90;;;;;;;11.42;100.00;100906.81;106187;1254;60658;-50
2023/09/06 03:53:32;;;;;;;2.80;1.60;;;;;;;11.35;100.00;100907.39;105022;1254;72949;-49
2023/09/06 03:56:00;;;;;;;3.60;1.30;;;;;;;11.29;100.00;100907.23;104806;1261;65628;-49
2023/09/06 03:58:41;;;;;;;6.50;1.40;;;;;;;11.27;100.00;100909.45;104773;1254;70778;-50
2023/09/06 04:01:10;;;;;;;2.00;1.20;;;;;;;11.25;100.00;100909.50;106284;1255;61692;-49
2023/09/06 04:03:41;;;;;;;1.50;1.30;;;;;;;11.21;100.00;100910.73;105001;1254;60512;-51
2023/09/06 04:06:10;;;;;;;2.50;1.30;;;;;;;11.18;100.00;100914.41;105120;1256;74524;-49
2023/09/06 04:08:39;;;;;;;2.90;1.60;;;;;;;11.17;100.00;100911.02;104947;1254;67541;-50
2023/09/06 04:11:09;;;;;;;3.50;1.70;;;;;;;11.21;100.00;100914.52;105540;1259;72698;-51
2023/09/06 04:13:42;;;;;;;2.00;1.30;;;;;;;11.25;100.00;100918.86;104965;1254;60506;-50
2023/09/06 04:16:10;;;;;;;2.70;1.40;;;;;;;11.30;100.00;100917.80;104742;1260;60508;-50
2023/09/06 04:18:37;;;;;;;2.00;1.50;;;;;;;11.36;100.00;100920.12;104726;1256;72581;-49
2023/09/06 04:21:08;;;;;;;1.50;1.10;;;;;;;11.41;100.00;100921.41;104760;1254;67372;-49
2023/09/06 04:23:36;;;;;;;2.80;1.40;;;;;;;11.44;100.00;100922.36;106725;1259;71998;-50
2023/09/06 04:26:05;;;;;;;2.20;1.40;;;;;;;11.49;100.00;100923.27;105068;1256;60535;-50
2023/09/06 04:28:36;;;;;;;3.40;1.50;;;;;;;11.65;100.00;100922.73;108831;1254;60290;-50
2023/09/06 04:31:04;;;;;;;3.40;1.50;;;;;;;11.87;100.00;100918.05;108778;1254;74202;-51
2023/09/06 04:33:36;;;;;;;3.90;1.60;;;;;;;12.16;100.00;100914.84;108446;1256;67298;-51
2023/09/06 04:36:10;;;;;;;1.70;1.50;;;;;;;12.50;100.00;100909.60;104620;1257;71531;-49
2023/09/06 04:38:38;;;;;;;2.10;1.60;;;;;;;12.84;100.00;100905.58;104877;1256;60658;-51
2023/09/06 04:41:07;;;;;;;3.00;1.30;;;;;;;13.14;100.00;100907.09;105059;1255;60540;-51
2023/09/06 04:43:38;;;;;;;3.70;1.50;;;;;;;13.36;100.00;100911.25;104969;1256;72579;-49
2023/09/06 04:46:06;;;;;;;2.40;1.70;;;;;;;13.52;100.00;100905.52;104890;1256;68987;-52
2023/09/06 04:48:38;;;;;;;2.70;2.20;;;;;;;13.64;100.00;100912.57;105526;1259;72556;-50
2023/09/06 04:51:06;;;;;;;7.10;2.20;;;;;;;13.74;100.00;100919.77;105067;1256;60440;-50
2023/09/06 04:53:34;;;;;;;3.90;1.90;;;;;;;13.76;100.00;100916.06;104902;1256;60400;-51
2023/09/06 04:56:03;;;;;;;3.20;1.70;;;;;;;13.75;100.00;100915.55;104830;1259;73899;-50
2023/09/06 04:58:46;;;;;;;2.20;2.00;;;;;;;13.76;100.00;100920.40;104970;1259;66318;-51
2023/09/06 05:01:13;;;;;;;2.80;2.10;;;;;;;13.76;100.00;100918.41;105448;1259;70605;-50
2023/09/06 05:03:41;;;;;;;2.80;2.10;;;;;;;13.79;100.00;100916.30;105042;1256;60597;-53
2023/09/06 05:06:08;;;;;;;4.60;2.50;;;;;;;13.84;100.00;100918.79;106258;1254;60511;-51
2023/09/06 05:08:36;;;;;;;3.80;2.50;;;;;;;13.89;100.00;100918.89;104805;1254;73788;-53
2023/09/06 05:11:14;;;;;;;4.30;2.10;;;;;;;13.95;100.00;100920.61;104979;1259;65651;-49
2023/09/06 05:13:42;;;;;;;5.80;2.80;;;;;;;14.01;100.00;100919.30;105253;1259;72747;-49
2023/09/06 05:16:10;;;;;;;2.90;2.10;;;;;;;14.08;100.00;100917.33;105215;1256;60461;-50
2023/09/06 05:18:38;;;;;;;5.20;2.30;;;;;;;14.16;100.00;100913.74;105080;1259;60511;-50
2023/09/06 05:21:06;;;;;;;5.30;2.50;;;;;;;14.24;100.00;100915.55;105133;1254;73826;-49
2023/09/06 05:23:36;;;;;;;3.20;2.00;;;;;;;14.33;100.00;100909.36;105013;1256;64960;-50
2023/09/06 05:26:04;;;;;;;3.00;2.00;;;;;;;14.42;100.00;100904.10;105130;1256;71355;-49
2023/09/06 05:28:36;;;;;;;6.00;2.50;;;;;;;14.54;100.00;100907.54;104961;1257;60897;-50
2023/09/06 05:31:03;;;;;;;5.50;1.50;;;;;;;14.65;100.00;100906.46;104960;1257;60598;-50
2023/09/06 05:33:36;;;;;;;6.30;2.20;;;;;;;14.79;100.00;100902.37;105029;1257;72559;-50
2023/09/06 05:36:04;;;;;;;4.50;2.10;;;;;;;14.92;100.00;100900.27;104770;1254;65520;-49
2023/09/06 05:38:31;;;;;;;4.60;2.40;;;;;;;15.07;100.00;100898.10;105225;1255;72940;-51
2023/09/06 05:41:00;;;;;;;5.00;2.20;;;;;;;15.21;100.00;100901.79;105099;1254;60466;-51
2023/09/06 05:43:31;;;;;;;2.30;2.10;;;;;;;15.33;100.00;100905.54;104829;1256;60563;-50
2023/09/06 05:45:59;;;;;;;4.00;2.50;;;;;;;15.45;100.00;100906.17;104538;1261;73867;-48
2023/09/06 05:48:26;;;;;;;2.80;2.30;;;;;;;15.58;100.00;100906.30;104667;1254;64694;-49
2023/09/06 05:50:55;;;;;;;5.00;2.10;;;;;;;15.69;100.00;100907.16;104956;1254;71957;-51
2023/09/06 05:53:23;;;;;;;7.40;1.60;;;;;;;15.80;100.00;100905.46;104949;1261;61751;-50
2023/09/06 05:55:51;;;;;;;2.40;2.00;;;;;;;15.94;100.00;100907.52;107716;1256;58882;-51
2023/09/06 05:58:19;;;;;;;2.90;1.40;;;;;;;16.07;100.00;100906.79;104668;1261;72569;-52
2023/09/06 06:00:46;;;;;;;3.50;1.60;;;;;;;16.22;100.00;100909.81;104628;1259;66997;-48
2023/09/06 06:03:14;;;;;;;3.40;1.80;;;;;;;16.37;100.00;100908.82;104850;1254;72806;-49
2023/09/06 06:05:42;;;;;;;2.70;2.50;;;;;;;16.51;100.00;100903.16;107044;1256;60091;-49
2023/09/06 06:08:10;;;;;;;4.30;2.70;;;;;;;16.65;100.00;100902.42;109022;1254;59340;-50
2023/09/06 06:10:38;;;;;;;5.20;1.70;;;;;;;16.79;100.00;100902.36;108926;1256;72561;-50
2023/09/06 06:13:08;;;;;;;4.20;2.30;;;;;;;16.93;100.00;100897.40;108952;1256;68041;-50
2023/09/06 06:15:35;;;;;;;2.50;1.90;;;;;;;17.08;100.00;100901.98;108990;1254;72600;-51
2023/09/06 06:18:03;;;;;;;3.20;1.40;;;;;;;17.22;100.00;100901.19;108914;1254;58962;-52
2023/09/06 06:20:31;;;;;;;3.50;1.60;;;;;;;17.37;100.00;100903.95;109201;1253;58772;-51
2023/09/06 06:23:10;;;;;;;3.90;1.40;;;;;;;17.52;100.00;100904.34;109098;1254;73848;-51
2023/09/06 06:25:38;;;;;;;5.50;1.10;;;;;;;17.65;100.00;100905.01;109057;1254;66237;-51
2023/09/06 06:28:06;;;;;;;4.90;2.20;;;;;;;17.76;100.00;100902.70;109119;1252;71375;-50
2023/09/06 06:30:33;;;;;;;7.30;1.30;;;;;;;17.87;100.00;100903.52;109204;1252;58759;-51
2023/09/06 06:33:01;;;;;;;4.40;1.00;;;;;;;17.96;100.00;100903.14;109018;1254;59279;-52
2023/09/06 06:35:30;;;;;;;1.00;0.80;;;;;;;18.04;100.00;100903.94;109110;1253;73824;-51
2023/09/06 06:37:58;;;;;;;1.70;0.80;;;;;;;18.08;100.00;100906.20;109155;1254;66741;-50
2023/09/06 06:40:26;;;;;;;2.60;0.90;;;;;;;18.12;100.00;100910.54;109166;1254;74052;-51
2023/09/06 06:42:53;;;;;;;1.40;0.80;;;;;;;18.13;100.00;100913.88;109084;1252;59783;-51
2023/09/06 06:45:20;;;;;;;2.10;0.80;;;;;;;18.15;100.00;100908.70;109145;1254;60081;-50
2023/09/06 06:47:48;;;;;;;1.30;0.80;;;;;;;18.17;100.00;100911.86;106054;1253;73765;-50
2023/09/06 06:50:15;;;;;;;2.80;0.80;;;;;;;18.21;100.00;100906.36;105071;1254;67702;-49
2023/09/06 06:52:44;;;;;;;1.40;0.80;;;;;;;18.25;100.00;100906.44;105085;1257;71371;-49
2023/09/06 06:55:12;;;;;;;1.20;0.80;;;;;;;18.33;100.00;100908.47;105122;1254;60424;-49
2023/09/06 06:57:39;;;;;;;1.10;0.80;;;;;;;18.41;100.00;100905.98;105092;1252;60590;-50
2023/09/06 07:00:11;;;;;;;6.40;0.80;;;;;;;18.48;100.00;100908.64;105058;1254;72672;-51
2023/09/06 07:02:38;;;;;;;3.20;0.80;;;;;;;18.52;100.00;100906.98;105731;1254;67599;-50
2023/09/06 07:05:07;;;;;;;0.90;0.80;;;;;;;18.55;100.00;100906.41;106304;1256;71673;-51
2023/09/06 07:07:35;;;;;;;1.80;0.90;;;;;;;18.57;100.00;100908.65;105554;1254;60443;-51
2023/09/06 07:10:02;;;;;;;3.20;1.10;;;;;;;18.62;100.00;100906.91;105093;1254;60562;-49
2023/09/06 07:12:30;;;;;;;2.00;0.90;;;;;;;18.67;100.00;100904.92;104920;1254;72666;-51
2023/09/06 07:14:58;;;;;;;1.40;0.90;;;;;;;18.74;100.00;100898.27;105044;1259;64524;-50
2023/09/06 07:17:25;;;;;;;3.60;1.00;;;;;;;18.84;100.00;100896.02;105085;1257;72651;-50
2023/09/06 07:19:54;;;;;;;1.30;0.80;;;;;;;18.94;100.00;100888.84;105183;1254;60502;-52
2023/09/06 07:22:21;;;;;;;2.00;0.80;;;;;;;19.02;100.00;100883.00;105013;1254;60400;-50
2023/09/06 07:24:48;;;;;;;1.40;0.70;;;;;;;19.11;100.00;100885.30;105139;1255;73873;-49
2023/09/06 07:27:16;;;;;;;2.20;0.80;;;;;;;19.20;100.00;100887.46;105113;1258;65500;-49
2023/09/06 07:29:43;;;;;;;2.30;0.80;;;;;;;19.28;100.00;100889.67;105018;1259;72676;-49
2023/09/06 07:32:10;;;;;;;1.10;0.80;;;;;;;19.34;100.00;100890.89;104998;1257;60495;-50
2023/09/06 07:34:38;;;;;;;2.20;0.80;;;;;;;19.39;100.00;100897.09;105078;1259;60399;-50
2023/09/06 07:37:05;;;;;;;0.90;0.80;;;;;;;19.44;100.00;100895.66;104817;1259;72866;-49
2023/09/06 07:39:32;;;;;;;1.00;0.70;;;;;;;19.50;100.00;100891.67;104936;1254;64880;-50
2023/09/06 07:42:00;;;;;;;1.00;0.70;;;;;;;19.55;100.00;100887.52;105021;1254;71475;-51
2023/09/06 07:44:30;;;;;;;1.40;0.70;;;;;;;19.61;100.00;100889.80;105286;1259;60536;-51
2023/09/06 07:46:57;;;;;;;2.00;0.70;;;;;;;19.66;100.00;100891.45;105088;1254;60548;-50
2023/09/06 07:49:27;;;;;;;0.90;0.80;;;;;;;19.72;100.00;100893.86;105022;1259;73856;-51
2023/09/06 07:51:57;;;;;;;1.50;0.70;;;;;;;19.75;100.00;100886.89;105170;1259;65508;-51
2023/09/06 07:54:24;;;;;;;2.20;0.60;;;;;;;19.77;100.00;100883.77;105454;1259;72660;-52
2023/09/06 07:56:52;;;;;;;2.10;0.80;;;;;;;19.82;100.00;100881.08;105291;1254;60876;-50
2023/09/06 07:59:22;;;;;;;0.80;0.70;;;;;;;19.88;100.00;100881.45;105018;1255;61220;-50
2023/09/06 08:01:50;;;;;;;1.60;0.90;;;;;;;19.93;100.00;100881.07;104943;1259;73802;-51
2023/09/06 08:04:19;;;;;;;4.10;0.70;;;;;;;19.98;100.00;100880.70;104971;1259;66785;-51
2023/09/06 08:06:47;;;;;;;2.90;0.70;;;;;;;20.05;100.00;100875.48;105046;1257;72664;-51
2023/09/06 08:09:14;;;;;;;2.20;0.90;;;;;;;20.12;100.00;100869.55;105465;1254;60551;-51
2023/09/06 08:11:42;;;;;;;2.00;0.80;;;;;;;20.17;100.00;100866.03;104998;1254;60594;-50
2023/09/06 08:14:09;;;;;;;1.40;0.80;;;;;;;20.25;100.00;100863.85;104742;1254;72426;-52
2023/09/06 08:16:36;;;;;;;1.50;0.90;;;;;;;20.34;100.00;100863.27;105065;1259;67051;-51
2023/09/06 08:19:04;;;;;;;1.70;0.80;;;;;;;20.45;100.00;100860.85;105060;1259;72721;-51
2023/09/06 08:21:32;;;;;;;6.10;2.00;;;;;;;20.56;100.00;100866.04;105420;1254;60522;-52
2023/09/06 08:24:02;;;;;;;1.60;0.70;;;;;;;20.67;100.00;100858.68;104901;1254;60545;-51
2023/09/06 08:26:29;;;;;;;1.10;0.70;;;;;;;20.76;100.00;100851.25;104880;1259;73858;-52
2023/09/06 08:28:56;;;;;;;1.10;0.80;;;;;;;20.85;100.00;100853.70;105024;1254;65794;-52
2023/09/06 08:31:24;;;;;;;7.50;0.60;;;;;;;20.93;100.00;100852.02;104996;1259;182328;-51
2023/09/06 08:35:58;;;;;;;3.00;0.80;;;;;;;20.99;100.00;100877.64;102022;1295;600258;-50
2023/09/06 08:38:26;;;;;;;0.70;0.50;;;;;;;21.02;100.00;100871.72;104081;1270;59252;-53
2023/09/06 08:40:53;;;;;;;0.80;0.50;;;;;;;21.06;100.00;100867.83;104238;1271;59401;-52
2023/09/06 08:43:21;;;;;;;1.20;0.70;;;;;;;21.06;100.00;100866.16;104224;1266;72071;-51
2023/09/06 08:45:48;;;;;;;0.80;0.60;;;;;;;21.03;100.00;100866.54;103889;1271;66938;-52
2023/09/06 08:48:16;;;;;;;0.90;0.70;;;;;;;21.00;100.00;100863.55;104050;1268;72666;-50
2023/09/06 08:50:44;;;;;;;2.30;0.60;;;;;;;20.99;100.00;100863.58;105040;1271;146734;-51
2023/09/06 08:53:12;;;;;;;2.70;0.60;;;;;;;21.01;100.00;100863.26;105346;1264;59285;-50
2023/09/06 08:55:41;;;;;;;1.00;0.60;;;;;;;21.04;100.00;100860.66;104159;1269;72673;-52
2023/09/06 08:58:09;;;;;;;1.80;0.60;;;;;;;21.09;100.00;100856.05;104214;1264;67243;-51
2023/09/06 09:00:38;;;;;;;1.80;0.60;;;;;;;21.16;100.00;100859.80;104236;1270;72492;-50
2023/09/06 09:03:05;;;;;;;0.70;0.50;;;;;;;21.25;100.00;100862.80;105994;1265;59637;-51
2023/09/06 09:05:33;;;;;;;2.10;0.40;;;;;;;21.33;100.00;100863.95;105228;1264;59742;-50
2023/09/06 09:08:01;;;;;;;0.70;0.50;;;;;;;21.40;100.00;100861.82;104331;1267;71827;-51
2023/09/06 09:10:31;;;;;;;0.90;0.50;;;;;;;21.45;100.00;100854.84;104129;1264;65980;-53
2023/09/06 09:13:00;;;;;;;0.80;0.60;;;;;;;21.51;100.00;100853.30;108402;1262;71380;-52
2023/09/06 09:15:34;;;;;;;0.50;0.50;;;;;;;21.56;100.00;100851.48;108495;1261;60600;-53
2023/09/06 09:18:15;;;;;;;0.70;0.50;;;;;;;21.56;100.00;100854.01;108523;1260;60051;-53
2023/09/06 09:20:43;;;;;;;1.80;0.60;;;;;;;21.55;100.00;100849.89;108573;1262;73042;-52
2023/09/06 09:23:14;;;;;;;1.00;0.50;;;;;;;21.59;100.00;100848.15;108574;1262;65882;-51
2023/09/06 09:25:51;;;;;;;0.40;0.40;;;;;;;21.66;100.00;100843.02;108597;1263;72459;-53
2023/09/06 09:28:18;;;;;;;1.80;0.50;;;;;;;21.74;100.00;100844.92;108507;1260;59021;-53
2023/09/06 09:30:46;;;;;;;0.50;0.50;;;;;;;21.84;100.00;100840.51;109112;1254;58753;-52
2023/09/06 09:33:14;;;;;;;0.80;0.50;;;;;;;21.94;100.00;100840.52;108861;1254;73025;-53
2023/09/06 09:35:43;;;;;;;2.10;0.60;;;;;;;22.03;100.00;100841.23;109099;1254;65614;-53
2023/09/06 09:38:10;;;;;;;0.40;0.40;;;;;;;22.08;100.00;100840.65;108827;1257;72664;-53
2023/09/06 09:40:38;;;;;;;0.40;0.40;;;;;;;22.13;100.00;100837.71;109055;1253;60054;-52
2023/09/06 09:43:08;;;;;;;0.70;0.50;;;;;;;22.19;100.00;100839.79;109002;1253;59595;-52
2023/09/06 09:45:43;;;;;;;1.70;0.50;;;;;;;22.24;100.00;100845.59;109125;1254;70897;-53
2023/09/06 09:48:11;;;;;;;1.50;0.50;;;;;;;22.30;100.00;100838.86;109043;1254;67048;-53
2023/09/06 09:50:41;;;;;;;2.00;0.60;;;;;;;22.35;100.00;100834.45;109070;1254;72647;-52
2023/09/06 09:53:09;;;;;;;0.50;0.50;;;;;;;22.43;100.00;100834.77;108893;1253;60128;-52
2023/09/06 09:55:49;;;;;;;1.00;0.50;;;;;;;22.51;100.00;100840.86;105318;1254;60016;-52
2023/09/06 09:58:18;;;;;;;3.60;0.70;;;;;;;22.55;100.00;100839.98;104880;1258;73034;-52
2023/09/06 10:00:51;;;;;;;0.60;0.50;;;;;;;22.57;100.00;100839.02;104842;1256;66958;-50
2023/09/06 10:03:21;;;;;;;0.80;0.50;;;;;;;22.60;100.00;100832.94;104916;1259;73163;-51
2023/09/06 10:05:49;;;;;;;0.50;0.40;;;;;;;22.66;100.00;100832.69;105961;1254;60305;-51
2023/09/06 10:08:17;;;;;;;0.50;0.50;;;;;;;22.73;100.00;100838.38;104992;1254;59976;-52
2023/09/06 10:10:45;;;;;;;0.50;0.50;;;;;;;22.78;100.00;100834.84;105973;1260;73046;-52
2023/09/06 10:13:14;;;;;;;2.30;0.50;;;;;;;22.82;100.00;100831.58;105233;1259;67466;-52
2023/09/06 10:15:43;;;;;;;0.80;0.60;;;;;;;22.85;100.00;100833.14;104709;1258;71891;-52
2023/09/06 10:18:11;;;;;;;1.70;0.50;;;;;;;22.88;100.00;100829.98;106081;1254;59751;-51
2023/09/06 10:20:39;;;;;;;1.10;0.60;;;;;;;22.92;100.00;100831.67;106093;1255;59636;-52
2023/09/06 10:23:07;;;;;;;1.10;0.60;;;;;;;22.97;100.00;100833.27;105023;1253;73050;-51
2023/09/06 10:25:49;;;;;;;1.20;0.60;;;;;;;22.99;100.00;100831.91;104761;1256;65660;-53
2023/09/06 10:28:19;;;;;;;1.10;0.50;;;;;;;23.02;100.00;100835.01;104687;1260;72599;-52
2023/09/06 10:30:48;;;;;;;1.00;0.50;;;;;;;23.03;100.00;100835.69;105114;1256;59661;-51
2023/09/06 10:33:42;;;;;;;3.10;0.60;;;;;;;23.01;100.00;100833.48;105371;1254;59668;-51
2023/09/06 10:36:11;;;;;;;0.70;0.40;;;;;;;22.95;100.00;100833.81;105253;1254;73470;-51
2023/09/06 10:38:52;;;;;;;0.40;0.40;;;;;;;22.91;100.00;100824.39;105514;1253;66755;-51
2023/09/06 10:41:24;;;;;;;0.70;0.50;;;;;;;22.89;100.00;100826.60;105061;1253;72359;-52
2023/09/06 10:43:57;;;;;;;1.10;0.60;;;;;;;22.90;100.00;100831.46;104752;1257;60509;-52
2023/09/06 10:46:26;;;;;;;2.60;0.50;;;;;;;22.93;100.00;100828.05;105116;1253;61069;-52
2023/09/06 10:49:13;;;;;;;0.70;0.40;;;;;;;23.01;100.00;100827.75;105481;1258;73073;-53
2023/09/06 10:52:04;;;;;;;2.10;0.50;;;;;;;23.10;100.00;100828.86;104965;1253;67618;-53
2023/09/06 10:54:39;;;;;;;0.80;0.60;;;;;;;23.20;100.00;100830.55;105033;1255;71775;-53
2023/09/06 10:57:08;;;;;;;0.60;0.40;;;;;;;23.29;100.00;100822.14;105153;1255;60889;-51
2023/09/06 10:59:36;;;;;;;3.00;0.60;;;;;;;23.38;100.00;100824.13;104890;1258;59752;-51
2023/09/06 11:02:23;;;;;;;0.80;0.60;;;;;;;23.47;100.00;100813.83;104984;1255;72823;-52
2023/09/06 11:05:14;;;;;;;0.70;0.50;;;;;;;23.54;100.00;100819.52;105466;1253;66048;-53
2023/09/06 11:07:45;;;;;;;0.70;0.40;;;;;;;23.52;100.00;100817.80;104915;1256;70708;-52
2023/09/06 11:10:22;;;;;;;0.60;0.40;;;;;;;23.51;100.00;100815.55;104925;1258;60056;-52
2023/09/06 11:12:53;;;;;;;3.60;0.50;;;;;;;23.49;100.00;100815.52;104863;1253;60123;-51
2023/09/06 11:15:22;;;;;;;1.80;0.40;;;;;;;23.47;100.00;100811.10;105393;1256;73503;-50
2023/09/06 11:17:52;;;;;;;1.30;0.50;;;;;;;23.48;100.00;100812.63;104823;1258;66780;-51
2023/09/06 11:20:20;;;;;;;2.10;0.50;;;;;;;23.50;100.00;100809.02;104989;1253;73110;-51
2023/09/06 11:22:56;;;;;;;0.50;0.40;;;;;;;23.53;100.00;100811.67;105218;1253;59766;-52